Benton, Arkansas
Current Conditions -  °F | °C
As of 5:53 AM on Monday 22 Dec 2014 (Local Time) from KLIT Reporting Station
Drizzle Drizzle  
Wind Chill: 44°   Ceiling: 500
Heat Index: 49°   Visibility: 3mi
Dew Point: 46°   Wind: 14mph
Humidity: 90%   Direction: 160°SSE
Pressure: 29.75"   Gusts: NA
Location:  34.56°N, 92.59°W
Report Text: KLIT 221153Z 16012KT 3SM -DZ BR BKN005 OVC020 09/08 A2975 RMK AO2 RAE28B46E51DZB51 SLP078 P0000 60000 T00940078 10094 20044 58018
Loading
Personal Weather Stations






























Interactive Weather Map New forecast layout! Learn more

10-Day Weather Forecast

Advertisements
Track Severe Weather on mobile